createdAt,value
2023-01-19T00:01:12.563Z,-0.10
2023-01-19T00:03:42.510Z,-0.09
2023-01-19T00:06:11.198Z,-0.11
2023-01-19T00:08:39.692Z,-0.09
2023-01-19T00:11:11.084Z,-0.10
2023-01-19T00:13:39.993Z,-0.08
2023-01-19T00:16:09.034Z,-0.10
2023-01-19T00:18:38.879Z,-0.08
2023-01-19T00:21:07.542Z,-0.10
2023-01-19T00:23:35.893Z,-0.12
2023-01-19T00:26:04.265Z,-0.13
2023-01-19T00:28:33.104Z,-0.12
2023-01-19T00:31:02.046Z,-0.14
2023-01-19T00:33:32.160Z,-0.14
2023-01-19T00:36:04.509Z,-0.16
2023-01-19T00:38:32.920Z,-0.20
2023-01-19T00:41:01.197Z,-0.23
2023-01-19T00:43:29.454Z,-0.24
2023-01-19T00:46:00.792Z,-0.22
2023-01-19T00:48:29.613Z,-0.19
2023-01-19T00:50:58.196Z,-0.18
2023-01-19T00:53:29.369Z,-0.24
2023-01-19T00:55:57.674Z,-0.21
2023-01-19T00:58:28.968Z,-0.23
2023-01-19T01:01:03.802Z,-0.24
2023-01-19T01:03:33.465Z,-0.26
2023-01-19T01:06:03.699Z,-0.26
2023-01-19T01:08:33.463Z,-0.23
2023-01-19T01:11:01.696Z,-0.26
2023-01-19T01:13:30.346Z,-0.25
2023-01-19T01:15:59.041Z,-0.27
2023-01-19T01:18:27.430Z,-0.24
2023-01-19T01:21:02.742Z,-0.25
2023-01-19T01:23:32.455Z,-0.27
2023-01-19T01:26:00.885Z,-0.23
2023-01-19T01:28:29.281Z,-0.27
2023-01-19T01:30:58.151Z,-0.26
2023-01-19T01:33:40.508Z,-0.23
2023-01-19T01:36:11.361Z,-0.23
2023-01-19T01:38:41.185Z,-0.24
2023-01-19T01:41:09.927Z,-0.24
2023-01-19T01:43:46.779Z,-0.24
2023-01-19T01:46:17.464Z,-0.26
2023-01-19T01:48:51.242Z,-0.28
2023-01-19T01:51:26.457Z,-0.29
2023-01-19T01:54:06.988Z,-0.30
2023-01-19T01:56:38.133Z,-0.33
2023-01-19T01:59:09.323Z,-0.33
2023-01-19T02:01:55.321Z,-0.36
2023-01-19T02:04:24.861Z,-0.42
2023-01-19T02:07:11.413Z,-0.46
2023-01-19T02:09:58.650Z,-0.53
2023-01-19T02:12:44.059Z,-0.51
2023-01-19T02:15:17.713Z,-0.53
2023-01-19T02:17:46.089Z,-0.57
2023-01-19T02:20:14.808Z,-0.60
2023-01-19T02:22:47.213Z,-0.59
2023-01-19T02:25:17.685Z,-0.63
2023-01-19T02:27:46.113Z,-0.66
2023-01-19T02:30:16.876Z,-0.70
2023-01-19T02:32:45.222Z,-0.78
2023-01-19T02:35:17.015Z,-0.78
2023-01-19T02:37:48.570Z,-0.85
2023-01-19T02:40:20.585Z,-0.90
2023-01-19T02:42:51.187Z,-0.96
2023-01-19T02:45:21.861Z,-1.01
2023-01-19T02:47:53.311Z,-1.00
2023-01-19T02:50:49.646Z,-0.97
2023-01-19T02:53:39.995Z,-0.94
2023-01-19T02:56:36.243Z,-0.96
2023-01-19T02:59:08.393Z,-1.00
2023-01-19T03:01:43.550Z,-0.92
2023-01-19T03:04:16.599Z,-0.96
2023-01-19T03:06:47.828Z,-0.99
2023-01-19T03:09:23.171Z,-1.02
2023-01-19T03:11:56.360Z,-1.10
2023-01-19T03:14:26.786Z,-1.10
2023-01-19T03:16:58.031Z,-1.12
2023-01-19T03:19:28.955Z,-1.11
2023-01-19T03:22:00.829Z,-1.10
2023-01-19T03:24:32.382Z,-1.06
2023-01-19T03:27:04.243Z,-1.05
2023-01-19T03:29:35.350Z,-1.07
2023-01-19T03:32:06.772Z,-1.04
2023-01-19T03:34:36.079Z,-1.06
2023-01-19T03:37:05.903Z,-1.05
2023-01-19T03:39:35.650Z,-1.04
2023-01-19T03:42:07.436Z,-1.05
2023-01-19T03:44:38.868Z,-1.04
2023-01-19T03:47:08.888Z,-1.02
2023-01-19T03:49:38.160Z,-1.03
2023-01-19T03:52:06.983Z,-1.02
2023-01-19T03:54:35.202Z,-1.01
2023-01-19T03:57:05.246Z,-1.02
2023-01-19T03:59:33.619Z,-0.94
2023-01-19T04:02:01.984Z,-0.98
2023-01-19T04:04:30.402Z,-0.86
2023-01-19T04:06:59.013Z,-0.84
2023-01-19T04:09:27.371Z,-0.82
2023-01-19T04:11:57.399Z,-0.78
2023-01-19T04:14:27.082Z,-0.75
2023-01-19T04:16:55.490Z,-0.77
2023-01-19T04:19:24.011Z,-0.76
2023-01-19T04:21:52.386Z,-0.71
2023-01-19T04:24:21.110Z,-0.71
2023-01-19T04:26:49.446Z,-0.70
2023-01-19T04:29:17.921Z,-0.62
2023-01-19T04:31:47.755Z,-0.56
2023-01-19T04:34:16.316Z,-0.50
2023-01-19T04:36:45.448Z,-0.44
2023-01-19T04:39:13.862Z,-0.42
2023-01-19T04:41:45.087Z,-0.38
2023-01-19T04:44:13.600Z,-0.38
2023-01-19T04:46:48.248Z,-0.37
2023-01-19T04:49:16.659Z,-0.35
2023-01-19T04:51:47.589Z,-0.34
2023-01-19T04:54:15.930Z,-0.38
2023-01-19T04:56:44.245Z,-0.35
2023-01-19T04:59:12.648Z,-0.42
2023-01-19T05:01:41.143Z,-0.41
2023-01-19T05:04:10.848Z,-0.40
2023-01-19T05:06:39.292Z,-0.46
2023-01-19T05:09:09.245Z,-0.42
2023-01-19T05:11:37.474Z,-0.42
2023-01-19T05:14:08.838Z,-0.45
2023-01-19T05:16:39.433Z,-0.42
2023-01-19T05:19:09.706Z,-0.39
2023-01-19T05:21:39.557Z,-0.36
2023-01-19T05:24:08.796Z,-0.33
2023-01-19T05:26:39.479Z,-0.30
2023-01-19T05:29:08.302Z,-0.28
2023-01-19T05:31:37.290Z,-0.26
2023-01-19T05:34:05.856Z,-0.24
2023-01-19T05:36:34.413Z,-0.24
2023-01-19T05:39:04.176Z,-0.23
2023-01-19T05:41:34.143Z,-0.19
2023-01-19T05:44:02.394Z,-0.14
2023-01-19T05:46:31.202Z,-0.14
2023-01-19T05:49:01.853Z,-0.11
2023-01-19T05:51:35.106Z,-0.08
2023-01-19T05:54:04.729Z,-0.08
2023-01-19T05:56:32.924Z,-0.03
2023-01-19T05:59:01.277Z,-0.03
2023-01-19T06:01:29.998Z,0.00
2023-01-19T06:03:58.341Z,0.00
2023-01-19T06:06:26.698Z,0.02
2023-01-19T06:08:55.298Z,-0.02
2023-01-19T06:11:38.520Z,-0.02
2023-01-19T06:14:10.485Z,0.03
2023-01-19T06:16:38.994Z,0.04
2023-01-19T06:19:07.783Z,0.07
2023-01-19T06:21:36.329Z,0.10
2023-01-19T06:24:04.864Z,0.14
2023-01-19T06:26:33.134Z,0.14
2023-01-19T06:29:02.826Z,0.19
2023-01-19T06:31:32.670Z,0.23
2023-01-19T06:34:01.149Z,0.28
2023-01-19T06:36:29.544Z,0.28
2023-01-19T06:38:57.871Z,0.33
2023-01-19T06:41:26.282Z,0.30
2023-01-19T06:43:54.689Z,0.31
2023-01-19T06:46:24.363Z,0.33
2023-01-19T06:48:53.092Z,0.33
2023-01-19T06:51:21.694Z,0.32
2023-01-19T06:53:50.047Z,0.31
2023-01-19T06:56:19.865Z,0.31
2023-01-19T06:58:49.202Z,0.27
2023-01-19T07:01:18.107Z,0.30
2023-01-19T07:03:47.968Z,0.31
2023-01-19T07:06:16.681Z,0.30
2023-01-19T07:08:44.933Z,0.31
2023-01-19T07:11:26.947Z,0.31
2023-01-19T07:14:01.275Z,0.33
2023-01-19T07:16:29.530Z,0.37
2023-01-19T07:18:59.355Z,0.37
2023-01-19T07:21:29.309Z,0.39
2023-01-19T07:23:57.957Z,0.37
2023-01-19T07:26:28.122Z,0.35
2023-01-19T07:28:56.578Z,0.39
2023-01-19T07:31:24.922Z,0.38
2023-01-19T07:33:53.294Z,0.37
2023-01-19T07:36:23.044Z,0.40
2023-01-19T07:38:51.298Z,0.42
2023-01-19T07:41:19.706Z,0.38
2023-01-19T07:43:48.117Z,0.42
2023-01-19T07:46:16.461Z,0.42
2023-01-19T07:48:47.664Z,0.42
2023-01-19T07:51:18.996Z,0.37
2023-01-19T07:53:55.348Z,0.47
2023-01-19T07:56:24.432Z,0.44
2023-01-19T07:58:53.110Z,0.44
2023-01-19T08:01:21.607Z,0.45
2023-01-19T08:03:50.334Z,0.41
2023-01-19T08:06:21.520Z,0.44
2023-01-19T08:08:49.868Z,0.48
2023-01-19T08:11:19.572Z,0.47
2023-01-19T08:13:48.020Z,0.47
2023-01-19T08:16:16.286Z,0.47
2023-01-19T08:18:47.724Z,0.49
2023-01-19T08:21:16.798Z,0.49
2023-01-19T08:23:45.938Z,0.53
2023-01-19T08:26:27.553Z,0.51
2023-01-19T08:28:55.819Z,0.50
2023-01-19T08:31:25.037Z,0.50
2023-01-19T08:33:55.061Z,0.51
2023-01-19T08:36:25.257Z,0.54
2023-01-19T08:38:59.299Z,0.54
2023-01-19T08:41:29.023Z,0.54
2023-01-19T08:43:57.391Z,0.56
2023-01-19T08:46:25.721Z,0.55
2023-01-19T08:48:55.664Z,0.58
2023-01-19T08:51:24.039Z,0.59
2023-01-19T08:53:52.850Z,0.62
2023-01-19T08:56:21.758Z,0.58
2023-01-19T08:59:07.599Z,0.63
2023-01-19T09:01:37.903Z,0.65
2023-01-19T09:04:06.755Z,0.63
2023-01-19T09:06:35.253Z,0.62
2023-01-19T09:09:03.691Z,0.62
2023-01-19T09:11:32.114Z,0.62
2023-01-19T09:14:01.998Z,0.62
2023-01-19T09:16:30.427Z,0.62
2023-01-19T09:18:58.770Z,0.59
2023-01-19T09:21:27.268Z,0.55
2023-01-19T09:23:56.003Z,0.61
2023-01-19T09:26:24.640Z,0.58
2023-01-19T09:28:53.058Z,0.59
2023-01-19T09:31:25.713Z,0.60
2023-01-19T09:33:54.001Z,0.64
2023-01-19T09:36:22.313Z,0.62
2023-01-19T09:38:50.699Z,0.63
2023-01-19T09:41:23.214Z,0.62
2023-01-19T09:43:57.246Z,0.64
2023-01-19T09:46:31.722Z,0.68
2023-01-19T09:49:05.021Z,0.66
2023-01-19T09:51:35.331Z,0.66
2023-01-19T09:54:13.552Z,0.73
2023-01-19T09:56:42.850Z,0.68
2023-01-19T09:59:21.227Z,0.73
2023-01-19T10:02:03.922Z,0.72
2023-01-19T10:04:35.860Z,0.65
2023-01-19T10:07:19.552Z,0.67
2023-01-19T10:10:14.596Z,0.65
2023-01-19T10:12:52.202Z,0.65
2023-01-19T10:15:32.021Z,0.70
2023-01-19T10:18:11.466Z,0.68
2023-01-19T10:20:43.450Z,0.66
2023-01-19T10:23:39.921Z,0.68
2023-01-19T10:26:11.465Z,0.65
2023-01-19T10:28:40.406Z,0.70
2023-01-19T10:31:09.890Z,0.69
2023-01-19T10:33:40.170Z,0.68
2023-01-19T10:36:19.867Z,0.65
2023-01-19T10:38:49.222Z,0.65
2023-01-19T10:41:22.311Z,0.62
2023-01-19T10:43:51.398Z,0.64
2023-01-19T10:46:26.195Z,0.64
2023-01-19T10:48:56.788Z,0.68
2023-01-19T10:51:25.150Z,0.70
2023-01-19T10:53:59.572Z,0.72
2023-01-19T10:56:31.800Z,0.71
2023-01-19T10:59:05.215Z,0.65
2023-01-19T11:01:37.125Z,0.69
2023-01-19T11:04:30.123Z,0.64
2023-01-19T11:07:16.813Z,0.59
2023-01-19T11:09:45.245Z,0.67
2023-01-19T11:12:21.106Z,0.63
2023-01-19T11:14:50.682Z,0.66
2023-01-19T11:17:24.787Z,0.63
2023-01-19T11:20:02.211Z,0.63
2023-01-19T11:22:33.185Z,0.68
2023-01-19T11:25:02.770Z,0.71
2023-01-19T11:27:36.877Z,0.71
2023-01-19T11:30:10.656Z,0.69
2023-01-19T11:32:43.059Z,0.63
2023-01-19T11:35:33.689Z,0.64
2023-01-19T11:38:13.135Z,0.64
2023-01-19T11:40:41.852Z,0.65
2023-01-19T11:43:11.991Z,0.63
2023-01-19T11:45:41.246Z,0.66
2023-01-19T11:48:18.811Z,0.64
2023-01-19T11:50:50.399Z,0.67
2023-01-19T11:53:24.432Z,0.66
2023-01-19T11:55:57.979Z,0.68
2023-01-19T11:58:29.332Z,0.62
2023-01-19T12:01:01.477Z,0.69
2023-01-19T12:03:33.101Z,0.65
2023-01-19T12:06:05.901Z,0.69
2023-01-19T12:08:41.302Z,0.71
2023-01-19T12:11:11.595Z,0.71
2023-01-19T12:13:42.091Z,0.72
2023-01-19T12:16:13.330Z,0.74
2023-01-19T12:18:44.191Z,0.72
2023-01-19T12:21:13.955Z,0.75
2023-01-19T12:23:49.849Z,0.69
2023-01-19T12:26:30.343Z,0.72
2023-01-19T12:29:01.643Z,0.75
2023-01-19T12:31:30.697Z,0.73
2023-01-19T12:34:39.766Z,0.67
2023-01-19T12:37:30.581Z,0.68
2023-01-19T12:40:01.875Z,0.64
2023-01-19T12:42:35.157Z,0.64
2023-01-19T12:45:08.791Z,0.63
2023-01-19T12:47:38.129Z,0.62
2023-01-19T12:50:19.407Z,0.64
2023-01-19T12:52:57.141Z,0.59
2023-01-19T12:55:31.232Z,0.60
2023-01-19T12:58:02.607Z,0.64
2023-01-19T13:00:42.447Z,0.63
2023-01-19T13:04:00.395Z,0.60
2023-01-19T13:07:06.282Z,0.59
2023-01-19T13:09:37.707Z,0.64
2023-01-19T13:12:21.694Z,0.60
2023-01-19T13:14:51.978Z,0.61
2023-01-19T13:17:34.834Z,0.58
2023-01-19T13:20:07.398Z,0.51
2023-01-19T13:23:24.045Z,0.47
2023-01-19T13:25:56.010Z,0.52
2023-01-19T13:28:43.269Z,0.53
2023-01-19T13:31:12.776Z,0.53
2023-01-19T13:33:47.814Z,0.56
2023-01-19T13:36:23.669Z,0.55
2023-01-19T13:38:53.212Z,0.51
2023-01-19T13:41:30.050Z,0.53
2023-01-19T13:44:02.430Z,0.49
2023-01-19T13:46:32.091Z,0.51
2023-01-19T13:49:04.384Z,0.50
2023-01-19T13:51:34.668Z,0.47
2023-01-19T13:54:03.104Z,0.47
2023-01-19T13:56:33.120Z,0.42
2023-01-19T13:59:05.693Z,0.38
2023-01-19T14:01:34.807Z,0.36
2023-01-19T14:04:05.807Z,0.32
2023-01-19T14:06:38.005Z,0.32
2023-01-19T14:09:10.976Z,0.33
2023-01-19T14:11:40.778Z,0.25
2023-01-19T14:14:27.119Z,0.31
2023-01-19T14:16:55.658Z,0.27
2023-01-19T14:19:24.478Z,0.29
2023-01-19T14:22:04.985Z,0.28
2023-01-19T14:24:33.478Z,0.29
2023-01-19T14:27:27.174Z,0.30
2023-01-19T14:30:14.474Z,0.27
2023-01-19T14:32:49.947Z,0.32
2023-01-19T14:35:26.661Z,0.32
2023-01-19T14:37:54.979Z,0.31
2023-01-19T14:40:24.611Z,0.30
2023-01-19T14:42:56.339Z,0.36
2023-01-19T14:45:26.611Z,0.31
2023-01-19T14:47:56.843Z,0.37
2023-01-19T14:50:26.951Z,0.35
2023-01-19T14:52:58.375Z,0.33
2023-01-19T14:55:30.834Z,0.36
2023-01-19T14:58:00.677Z,0.36
2023-01-19T15:00:29.162Z,0.40
2023-01-19T15:02:57.949Z,0.37
2023-01-19T15:05:26.609Z,0.31
2023-01-19T15:07:56.661Z,0.38
2023-01-19T15:10:25.589Z,0.35
2023-01-19T15:12:55.736Z,0.38
2023-01-19T15:15:32.106Z,0.33
2023-01-19T15:18:00.810Z,0.34
2023-01-19T15:20:29.324Z,0.35
2023-01-19T15:22:57.661Z,0.30
2023-01-19T15:25:27.154Z,0.27
2023-01-19T15:27:59.052Z,0.23
2023-01-19T15:30:31.264Z,0.25
2023-01-19T15:33:00.164Z,0.30
2023-01-19T15:35:29.215Z,0.30
2023-01-19T15:37:57.753Z,0.29
2023-01-19T15:40:27.882Z,0.28
2023-01-19T15:42:56.199Z,0.30
2023-01-19T15:45:34.930Z,0.33
2023-01-19T15:48:05.061Z,0.32
2023-01-19T15:50:37.063Z,0.30
2023-01-19T15:53:05.646Z,0.34
2023-01-19T15:55:35.940Z,0.34
2023-01-19T15:58:04.303Z,0.36
2023-01-19T16:00:38.751Z,0.38
2023-01-19T16:03:07.745Z,0.32
2023-01-19T16:05:43.879Z,0.32
2023-01-19T16:08:13.028Z,0.29
2023-01-19T16:10:41.875Z,0.29
2023-01-19T16:13:10.655Z,0.29
2023-01-19T16:15:49.800Z,0.32
2023-01-19T16:18:18.088Z,0.32
2023-01-19T16:20:48.194Z,0.34
2023-01-19T16:23:16.558Z,0.34
2023-01-19T16:25:45.055Z,0.32
2023-01-19T16:28:13.417Z,0.33
2023-01-19T16:30:43.172Z,0.34
2023-01-19T16:33:13.939Z,0.34
2023-01-19T16:35:42.610Z,0.34
2023-01-19T16:38:10.940Z,0.36
2023-01-19T16:40:39.284Z,0.35
2023-01-19T16:43:07.664Z,0.44
2023-01-19T16:45:36.103Z,0.41
2023-01-19T16:48:06.315Z,0.40
2023-01-19T16:50:34.719Z,0.41
2023-01-19T16:53:03.049Z,0.42
2023-01-19T16:55:31.425Z,0.39
2023-01-19T16:58:02.116Z,0.42
2023-01-19T17:00:33.655Z,0.41
2023-01-19T17:03:02.108Z,0.40
2023-01-19T17:05:32.302Z,0.40
2023-01-19T17:08:01.133Z,0.43
2023-01-19T17:10:29.643Z,0.39
2023-01-19T17:12:59.988Z,0.45
2023-01-19T17:15:28.352Z,0.39
2023-01-19T17:17:56.721Z,0.39
2023-01-19T17:20:25.017Z,0.40
2023-01-19T17:22:57.750Z,0.39
2023-01-19T17:25:26.063Z,0.37
2023-01-19T17:27:54.379Z,0.39
2023-01-19T17:30:22.900Z,0.38
2023-01-19T17:32:51.192Z,0.37
2023-01-19T17:35:19.606Z,0.36
2023-01-19T17:37:48.466Z,0.34
2023-01-19T17:40:26.188Z,0.34
2023-01-19T17:42:54.694Z,0.36
2023-01-19T17:45:23.104Z,0.38
2023-01-19T17:47:51.488Z,0.34
2023-01-19T17:50:22.832Z,0.36
2023-01-19T17:52:51.182Z,0.32
2023-01-19T17:55:20.896Z,0.34
2023-01-19T17:57:49.295Z,0.33
2023-01-19T18:00:18.793Z,0.38
2023-01-19T18:02:51.392Z,0.34
2023-01-19T18:05:22.758Z,0.33
2023-01-19T18:07:52.158Z,0.32
2023-01-19T18:10:22.664Z,0.35
2023-01-19T18:12:50.912Z,0.42
2023-01-19T18:15:19.467Z,0.41
2023-01-19T18:17:47.867Z,0.41
2023-01-19T18:20:16.351Z,0.43
2023-01-19T18:22:44.698Z,0.42
2023-01-19T18:25:13.017Z,0.46
2023-01-19T18:27:43.269Z,0.45
2023-01-19T18:30:13.010Z,0.43
2023-01-19T18:32:41.482Z,0.51
2023-01-19T18:35:10.428Z,0.51
2023-01-19T18:37:38.876Z,0.50
2023-01-19T18:40:08.482Z,0.51
2023-01-19T18:42:38.752Z,0.52
2023-01-19T18:45:11.846Z,0.53
2023-01-19T18:47:40.383Z,0.54
2023-01-19T18:50:09.622Z,0.53
2023-01-19T18:52:41.787Z,0.54
2023-01-19T18:55:10.746Z,0.56
2023-01-19T18:57:39.115Z,0.55
2023-01-19T19:00:10.482Z,0.57
2023-01-19T19:02:41.547Z,0.56
2023-01-19T19:05:10.148Z,0.55
2023-01-19T19:07:38.787Z,0.55
2023-01-19T19:10:08.566Z,0.53
2023-01-19T19:12:37.535Z,0.55
2023-01-19T19:15:06.450Z,0.57
2023-01-19T19:17:37.501Z,0.54
2023-01-19T19:20:06.338Z,0.56
2023-01-19T19:22:34.683Z,0.59
2023-01-19T19:25:03.083Z,0.60
2023-01-19T19:27:32.076Z,0.61
2023-01-19T19:30:00.523Z,0.63
2023-01-19T19:32:28.976Z,0.60
2023-01-19T19:35:01.008Z,0.63
2023-01-19T19:37:29.806Z,0.60
2023-01-19T19:39:58.671Z,0.63
2023-01-19T19:42:29.046Z,0.62
2023-01-19T19:44:59.539Z,0.62
2023-01-19T19:47:30.499Z,0.65
2023-01-19T19:50:00.492Z,0.63
2023-01-19T19:52:28.847Z,0.62
2023-01-19T19:54:57.171Z,0.62
2023-01-19T19:57:25.660Z,0.62
2023-01-19T19:59:55.794Z,0.63
2023-01-19T20:02:29.410Z,0.66
2023-01-19T20:04:58.743Z,0.65
2023-01-19T20:07:28.532Z,0.69
2023-01-19T20:09:56.915Z,0.69
2023-01-19T20:12:34.900Z,0.68
2023-01-19T20:15:07.322Z,0.71
2023-01-19T20:17:35.677Z,0.71
2023-01-19T20:20:04.686Z,0.72
2023-01-19T20:22:34.563Z,0.75
2023-01-19T20:25:04.845Z,0.77
2023-01-19T20:27:33.243Z,0.79
2023-01-19T20:30:01.816Z,0.78
2023-01-19T20:32:34.511Z,0.79
2023-01-19T20:35:03.460Z,0.79
2023-01-19T20:37:36.363Z,0.83
2023-01-19T20:40:06.120Z,0.82
2023-01-19T20:42:36.831Z,0.84
2023-01-19T20:45:06.475Z,0.85
2023-01-19T20:47:34.758Z,0.85
2023-01-19T20:50:03.222Z,0.87
2023-01-19T20:52:33.479Z,0.86
2023-01-19T20:55:01.765Z,0.87
2023-01-19T20:57:31.671Z,0.89
2023-01-19T21:00:00.129Z,0.88
2023-01-19T21:02:28.656Z,0.88
2023-01-19T21:04:57.037Z,0.89
2023-01-19T21:07:25.346Z,0.87
2023-01-19T21:09:55.035Z,0.90
2023-01-19T21:12:23.394Z,0.88
2023-01-19T21:14:52.243Z,0.88
2023-01-19T21:17:21.390Z,0.87
2023-01-19T21:19:49.679Z,0.87
2023-01-19T21:22:18.080Z,0.88
2023-01-19T21:24:46.393Z,0.89
2023-01-19T21:27:16.035Z,0.91
2023-01-19T21:29:44.421Z,0.92
2023-01-19T21:32:12.825Z,0.95
2023-01-19T21:34:44.431Z,1.01
2023-01-19T21:37:12.755Z,0.97
2023-01-19T21:39:44.163Z,1.00
2023-01-19T21:42:12.509Z,1.00
2023-01-19T21:44:42.173Z,1.01
2023-01-19T21:47:12.107Z,1.00
2023-01-19T21:49:41.040Z,1.03
2023-01-19T21:52:09.422Z,1.07
2023-01-19T21:54:37.755Z,1.00
2023-01-19T21:57:06.029Z,1.01
2023-01-19T21:59:34.418Z,1.03
2023-01-19T22:02:04.369Z,1.07
2023-01-19T22:04:32.693Z,1.08
2023-01-19T22:07:01.046Z,1.05
2023-01-19T22:09:29.378Z,1.05
2023-01-19T22:11:58.714Z,1.07
2023-01-19T22:14:27.184Z,1.09
2023-01-19T22:16:55.637Z,1.07
2023-01-19T22:19:31.411Z,1.07
2023-01-19T22:21:59.977Z,1.09
2023-01-19T22:24:33.063Z,1.01
2023-01-19T22:27:01.408Z,1.10
2023-01-19T22:29:29.825Z,1.10
2023-01-19T22:32:01.448Z,1.13
2023-01-19T22:34:31.418Z,1.13
2023-01-19T22:37:15.467Z,1.12
2023-01-19T22:39:43.776Z,1.17
2023-01-19T22:42:12.045Z,1.15
2023-01-19T22:44:40.510Z,1.13
2023-01-19T22:47:08.761Z,1.14
2023-01-19T22:49:38.921Z,1.14
2023-01-19T22:52:08.046Z,1.13
2023-01-19T22:54:36.567Z,1.13
2023-01-19T22:57:10.126Z,1.21
2023-01-19T22:59:38.356Z,1.19
2023-01-19T23:02:06.747Z,1.24
2023-01-19T23:04:35.197Z,1.21
2023-01-19T23:07:04.900Z,1.19
2023-01-19T23:09:34.423Z,1.27
2023-01-19T23:12:02.678Z,1.24
2023-01-19T23:14:31.027Z,1.27
2023-01-19T23:16:59.324Z,1.28
2023-01-19T23:19:29.164Z,1.29
2023-01-19T23:21:57.929Z,1.32
2023-01-19T23:24:27.918Z,1.27
2023-01-19T23:26:56.166Z,1.30
2023-01-19T23:29:24.605Z,1.40
2023-01-19T23:31:53.676Z,1.40
2023-01-19T23:34:21.895Z,1.43
2023-01-19T23:36:50.485Z,1.44
2023-01-19T23:39:22.086Z,1.40
2023-01-19T23:41:51.958Z,1.35
2023-01-19T23:44:20.377Z,1.40
2023-01-19T23:46:49.618Z,1.38
2023-01-19T23:49:18.270Z,1.41
2023-01-19T23:51:46.615Z,1.42
2023-01-19T23:54:15.422Z,1.40
2023-01-19T23:56:44.341Z,1.46
2023-01-19T23:59:15.759Z,1.43
